createdAt,value
2022-08-22T00:02:18.252Z,100.00
2022-08-22T00:02:59.714Z,100.00
2022-08-22T00:03:04.030Z,95.36
2022-08-22T00:03:04.654Z,100.00
2022-08-22T00:05:03.525Z,100.00
2022-08-22T00:07:42.338Z,100.00
2022-08-22T00:10:25.035Z,100.00
2022-08-22T00:13:03.855Z,100.00
2022-08-22T00:15:43.134Z,100.00
2022-08-22T00:18:16.196Z,100.00
2022-08-22T00:20:49.917Z,100.00
2022-08-22T00:23:28.713Z,100.00
2022-08-22T00:26:03.048Z,100.00
2022-08-22T00:28:44.844Z,100.00
2022-08-22T00:31:33.425Z,100.00
2022-08-22T00:34:26.371Z,100.00
2022-08-22T00:37:19.205Z,100.00
2022-08-22T00:40:04.730Z,100.00
2022-08-22T00:42:50.278Z,100.00
2022-08-22T00:45:16.755Z,100.00
2022-08-22T00:47:58.020Z,100.00
2022-08-22T00:50:27.724Z,100.00
2022-08-22T00:53:03.170Z,100.00
2022-08-22T00:56:06.982Z,100.00
2022-08-22T00:58:33.474Z,100.00
2022-08-22T01:01:06.837Z,100.00
2022-08-22T01:03:48.631Z,100.00
2022-08-22T01:06:33.942Z,100.00
2022-08-22T01:09:18.681Z,100.00
2022-08-22T01:12:07.074Z,100.00
2022-08-22T01:14:51.832Z,100.00
2022-08-22T01:17:39.252Z,100.00
2022-08-22T01:20:33.606Z,100.00
2022-08-22T01:23:12.202Z,100.00
2022-08-22T01:25:57.554Z,100.00
2022-08-22T01:28:54.673Z,100.00
2022-08-22T01:31:44.395Z,100.00
2022-08-22T01:34:53.662Z,100.00
2022-08-22T01:37:29.117Z,100.00
2022-08-22T01:40:14.553Z,100.00
2022-08-22T01:42:53.316Z,100.00
2022-08-22T01:45:57.602Z,100.00
2022-08-22T01:48:27.290Z,100.00
2022-08-22T01:51:22.074Z,100.00
2022-08-22T01:54:11.454Z,100.00
2022-08-22T01:56:44.463Z,100.00
2022-08-22T01:59:42.134Z,100.00
2022-08-22T02:02:28.319Z,100.00
2022-08-22T02:05:01.573Z,100.00
2022-08-22T02:07:52.673Z,100.00
2022-08-22T02:11:06.098Z,100.00
2022-08-22T02:13:49.200Z,100.00
2022-08-22T02:16:31.061Z,100.00
2022-08-22T02:19:15.926Z,100.00
2022-08-22T02:21:50.490Z,100.00
2022-08-22T02:24:19.548Z,100.00
2022-08-22T02:27:04.240Z,100.00
2022-08-22T02:29:41.915Z,100.00
2022-08-22T02:32:40.786Z,100.00
2022-08-22T02:35:14.343Z,100.00
2022-08-22T02:37:57.421Z,100.00
2022-08-22T02:40:42.014Z,100.00
2022-08-22T02:43:29.679Z,100.00
2022-08-22T02:46:18.878Z,100.00
2022-08-22T02:48:56.067Z,100.00
2022-08-22T02:51:45.791Z,100.00
2022-08-22T02:54:30.691Z,100.00
2022-08-22T02:57:03.283Z,100.00
2022-08-22T02:59:34.514Z,100.00
2022-08-22T03:02:39.279Z,100.00
2022-08-22T03:05:17.923Z,100.00
2022-08-22T03:07:53.305Z,100.00
2022-08-22T03:10:24.023Z,100.00
2022-08-22T03:12:57.427Z,100.00
2022-08-22T03:15:24.497Z,100.00
2022-08-22T03:18:06.162Z,100.00
2022-08-22T03:20:38.201Z,100.00
2022-08-22T03:23:10.426Z,100.00
2022-08-22T03:25:49.037Z,100.00
2022-08-22T03:28:58.997Z,100.00
2022-08-22T03:31:28.283Z,100.00
2022-08-22T03:34:16.634Z,100.00
2022-08-22T03:37:02.153Z,100.00
2022-08-22T03:39:49.951Z,100.00
2022-08-22T03:42:17.907Z,100.00
2022-08-22T03:45:03.268Z,100.00
2022-08-22T03:48:16.433Z,100.00
2022-08-22T03:51:12.342Z,100.00
2022-08-22T03:54:04.335Z,100.00
2022-08-22T03:57:08.797Z,100.00
2022-08-22T03:59:44.587Z,100.00
2022-08-22T04:02:42.528Z,100.00
2022-08-22T04:05:10.353Z,100.00
2022-08-22T04:07:58.447Z,100.00
2022-08-22T04:11:07.685Z,100.00
2022-08-22T04:13:53.227Z,100.00
2022-08-22T04:16:38.833Z,100.00
2022-08-22T04:19:32.178Z,100.00
2022-08-22T04:22:29.575Z,100.00
2022-08-22T04:25:01.113Z,100.00
2022-08-22T04:27:49.745Z,100.00
2022-08-22T04:30:16.274Z,100.00
2022-08-22T04:32:53.223Z,100.00
2022-08-22T04:35:39.797Z,100.00
2022-08-22T04:38:30.797Z,100.00
2022-08-22T04:41:12.675Z,100.00
2022-08-22T04:43:49.860Z,100.00
2022-08-22T04:46:23.243Z,100.00
2022-08-22T04:49:00.143Z,100.00
2022-08-22T04:51:36.933Z,100.00
2022-08-22T04:54:41.212Z,100.00
2022-08-22T04:57:39.471Z,100.00
2022-08-22T05:00:10.358Z,100.00
2022-08-22T05:02:39.967Z,100.00
2022-08-22T05:05:13.803Z,100.00
2022-08-22T05:07:46.260Z,100.00
2022-08-22T05:10:19.993Z,100.00
2022-08-22T05:12:55.314Z,100.00
2022-08-22T05:15:30.982Z,100.00
2022-08-22T05:18:09.396Z,100.00
2022-08-22T05:20:37.851Z,100.00
2022-08-22T05:23:42.446Z,100.00
2022-08-22T05:26:11.042Z,100.00
2022-08-22T05:28:41.648Z,100.00
2022-08-22T05:31:11.076Z,100.00
2022-08-22T05:33:49.048Z,100.00
2022-08-22T05:36:21.093Z,100.00
2022-08-22T05:38:56.282Z,100.00
2022-08-22T05:41:26.106Z,100.00
2022-08-22T05:43:53.811Z,100.00
2022-08-22T05:46:39.989Z,100.00
2022-08-22T05:49:16.356Z,100.00
2022-08-22T05:51:58.156Z,100.00
2022-08-22T05:54:33.739Z,100.00
2022-08-22T05:57:29.056Z,100.00
2022-08-22T06:00:12.911Z,100.00
2022-08-22T06:02:48.690Z,100.00
2022-08-22T06:05:22.193Z,100.00
2022-08-22T06:07:50.570Z,100.00
2022-08-22T06:10:17.426Z,100.00
2022-08-22T06:12:59.507Z,100.00
2022-08-22T06:15:53.056Z,100.00
2022-08-22T06:18:24.745Z,100.00
2022-08-22T06:21:02.025Z,100.00
2022-08-22T06:23:33.400Z,100.00
2022-08-22T06:26:01.578Z,100.00
2022-08-22T06:28:34.003Z,100.00
2022-08-22T06:31:02.528Z,100.00
2022-08-22T06:33:31.355Z,100.00
2022-08-22T06:36:20.642Z,100.00
2022-08-22T06:38:50.995Z,100.00
2022-08-22T06:41:18.105Z,100.00
2022-08-22T06:43:44.850Z,100.00
2022-08-22T06:46:13.491Z,100.00
2022-08-22T06:48:41.373Z,100.00
2022-08-22T06:51:09.528Z,100.00
2022-08-22T06:53:47.769Z,100.00
2022-08-22T06:56:21.109Z,100.00
2022-08-22T06:58:49.105Z,100.00
2022-08-22T07:01:24.143Z,100.00
2022-08-22T07:03:55.665Z,100.00
2022-08-22T07:06:30.991Z,100.00
2022-08-22T07:08:58.314Z,100.00
2022-08-22T07:11:34.858Z,100.00
2022-08-22T07:14:03.329Z,100.00
2022-08-22T07:16:52.187Z,100.00
2022-08-22T07:19:39.917Z,100.00
2022-08-22T07:22:33.216Z,100.00
2022-08-22T07:25:06.342Z,100.00
2022-08-22T07:27:54.503Z,100.00
2022-08-22T07:30:27.931Z,100.00
2022-08-22T07:33:25.639Z,100.00
2022-08-22T07:35:59.746Z,100.00
2022-08-22T07:38:42.810Z,100.00
2022-08-22T07:41:22.875Z,100.00
2022-08-22T07:43:51.773Z,100.00
2022-08-22T07:46:29.033Z,100.00
2022-08-22T07:49:19.975Z,100.00
2022-08-22T07:51:50.703Z,100.00
2022-08-22T07:54:27.057Z,100.00
2022-08-22T07:57:01.725Z,100.00
2022-08-22T07:59:29.721Z,100.00
2022-08-22T08:01:58.824Z,100.00
2022-08-22T08:04:29.763Z,100.00
2022-08-22T08:06:59.061Z,100.00
2022-08-22T08:09:29.254Z,100.00
2022-08-22T08:11:56.258Z,100.00
2022-08-22T08:14:23.768Z,100.00
2022-08-22T08:17:30.125Z,100.00
2022-08-22T08:20:00.494Z,100.00
2022-08-22T08:22:27.816Z,100.00
2022-08-22T08:24:56.882Z,73.55
2022-08-22T08:27:44.494Z,59.93
2022-08-22T08:30:24.589Z,56.96
2022-08-22T08:32:57.568Z,58.36
2022-08-22T08:36:01.824Z,58.88
2022-08-22T08:38:33.503Z,58.92
2022-08-22T08:41:28.434Z,60.90
2022-08-22T08:44:17.079Z,58.40
2022-08-22T08:47:20.695Z,59.89
2022-08-22T08:50:04.924Z,59.81
2022-08-22T08:52:52.901Z,59.09
2022-08-22T08:55:51.230Z,58.74
2022-08-22T08:58:24.120Z,57.15
2022-08-22T09:01:07.339Z,56.96
2022-08-22T09:03:56.259Z,58.29
2022-08-22T09:06:52.674Z,59.33
2022-08-22T09:09:45.039Z,57.54
2022-08-22T09:12:25.384Z,60.32
2022-08-22T09:15:11.818Z,59.17
2022-08-22T09:18:00.150Z,61.45
2022-08-22T09:20:48.205Z,62.61
2022-08-22T09:23:48.935Z,60.29
2022-08-22T09:26:40.267Z,60.30
2022-08-22T09:29:51.447Z,56.28
2022-08-22T09:32:34.444Z,56.90
2022-08-22T09:35:19.407Z,56.03
2022-08-22T09:38:10.258Z,55.15
2022-08-22T09:40:48.090Z,56.11
2022-08-22T09:43:24.038Z,55.92
2022-08-22T09:46:22.003Z,51.04
2022-08-22T09:49:05.619Z,49.38
2022-08-22T09:51:46.872Z,42.11
2022-08-22T09:54:34.683Z,39.91
2022-08-22T09:57:13.914Z,35.91
2022-08-22T09:59:46.731Z,33.49
2022-08-22T10:02:28.533Z,33.54
2022-08-22T10:05:04.138Z,32.74
2022-08-22T10:07:33.815Z,33.93
2022-08-22T10:10:21.374Z,30.94
2022-08-22T10:13:00.937Z,33.87
2022-08-22T10:15:39.523Z,35.96
2022-08-22T10:19:03.666Z,38.77
2022-08-22T10:21:46.983Z,40.05
2022-08-22T10:24:25.484Z,35.89
2022-08-22T10:26:55.051Z,31.39
2022-08-22T10:29:43.474Z,31.38
2022-08-22T10:32:20.574Z,31.50
2022-08-22T10:34:57.591Z,30.18
2022-08-22T10:37:37.632Z,29.01
2022-08-22T10:40:30.380Z,27.91
2022-08-22T10:43:02.445Z,27.52
2022-08-22T10:45:44.772Z,27.72
2022-08-22T10:48:20.785Z,28.75
2022-08-22T10:50:50.989Z,30.41
2022-08-22T10:53:30.598Z,29.06
2022-08-22T10:56:27.384Z,26.78
2022-08-22T10:59:12.955Z,25.84
2022-08-22T11:01:47.223Z,27.62
2022-08-22T11:04:33.170Z,28.05
2022-08-22T11:07:17.177Z,28.32
2022-08-22T11:09:55.319Z,26.87
2022-08-22T11:12:35.057Z,27.50
2022-08-22T11:15:03.131Z,28.26
2022-08-22T11:17:38.111Z,25.58
2022-08-22T11:20:23.454Z,23.49
2022-08-22T11:22:55.580Z,21.15
2022-08-22T11:25:36.019Z,20.55
2022-08-22T11:28:05.628Z,18.62
2022-08-22T11:30:44.213Z,18.16
2022-08-22T11:33:11.552Z,18.83
2022-08-22T11:35:42.579Z,19.43
2022-08-22T11:38:20.477Z,21.37
2022-08-22T11:40:59.212Z,24.58
2022-08-22T11:43:32.350Z,26.12
2022-08-22T11:46:00.437Z,25.89
2022-08-22T11:48:28.798Z,25.31
2022-08-22T11:51:00.156Z,23.41
2022-08-22T11:53:39.437Z,22.31
2022-08-22T11:56:21.079Z,22.06
2022-08-22T11:58:59.940Z,22.01
2022-08-22T12:01:37.989Z,23.74
2022-08-22T12:04:15.477Z,26.79
2022-08-22T12:06:46.734Z,28.85
2022-08-22T12:09:13.504Z,31.37
2022-08-22T12:11:52.565Z,31.50
2022-08-22T12:14:26.856Z,32.55
2022-08-22T12:16:57.322Z,31.60
2022-08-22T12:19:32.673Z,29.37
2022-08-22T12:22:18.125Z,27.08
2022-08-22T12:24:47.578Z,27.60
2022-08-22T12:27:29.225Z,27.66
2022-08-22T12:30:02.139Z,28.06
2022-08-22T12:32:37.721Z,28.91
2022-08-22T12:35:29.823Z,29.79
2022-08-22T12:38:28.602Z,31.28
2022-08-22T12:40:56.256Z,32.46
2022-08-22T12:43:42.650Z,33.54
2022-08-22T12:46:13.225Z,34.68
2022-08-22T12:48:52.111Z,36.10
2022-08-22T12:51:18.540Z,37.36
2022-08-22T12:54:04.546Z,38.08
2022-08-22T12:56:33.706Z,37.70
2022-08-22T12:59:18.908Z,38.07
2022-08-22T13:01:46.586Z,38.82
2022-08-22T13:04:19.224Z,40.14
2022-08-22T13:07:06.562Z,41.52
2022-08-22T13:09:37.785Z,41.45
2022-08-22T13:12:23.037Z,42.20
2022-08-22T13:14:50.234Z,43.25
2022-08-22T13:17:25.082Z,43.76
2022-08-22T13:19:57.195Z,39.88
2022-08-22T13:22:26.406Z,38.33
2022-08-22T13:25:01.427Z,37.01
2022-08-22T13:27:33.680Z,35.22
2022-08-22T13:30:01.329Z,35.59
2022-08-22T13:32:27.848Z,35.53
2022-08-22T13:34:55.044Z,35.72
2022-08-22T13:37:24.583Z,34.11
2022-08-22T13:39:52.677Z,34.20
2022-08-22T13:42:29.636Z,32.60
2022-08-22T13:44:58.165Z,32.77
2022-08-22T13:47:25.726Z,31.95
2022-08-22T13:49:53.901Z,32.38
2022-08-22T13:52:29.649Z,31.00
2022-08-22T13:55:01.453Z,32.19
2022-08-22T13:57:29.077Z,31.61
2022-08-22T14:00:05.570Z,30.61
2022-08-22T14:02:34.312Z,31.60
2022-08-22T14:05:01.852Z,31.70
2022-08-22T14:07:33.409Z,31.86
2022-08-22T14:10:12.545Z,32.49
2022-08-22T14:12:50.288Z,32.60
2022-08-22T14:15:23.501Z,33.20
2022-08-22T14:17:50.911Z,33.48
2022-08-22T14:20:32.067Z,32.91
2022-08-22T14:23:04.130Z,35.42
2022-08-22T14:25:34.191Z,36.02
2022-08-22T14:28:03.153Z,36.16
2022-08-22T14:30:34.547Z,35.24
2022-08-22T14:33:00.970Z,35.55
2022-08-22T14:35:35.089Z,34.48
2022-08-22T14:38:30.648Z,33.98
2022-08-22T14:41:01.271Z,33.63
2022-08-22T14:43:29.870Z,33.79
2022-08-22T14:46:01.950Z,33.92
2022-08-22T14:48:51.789Z,34.20
2022-08-22T14:51:18.939Z,32.49
2022-08-22T14:53:48.339Z,33.76
2022-08-22T14:56:19.155Z,33.90
2022-08-22T14:58:47.749Z,34.17
2022-08-22T15:01:16.406Z,34.50
2022-08-22T15:03:43.500Z,34.52
2022-08-22T15:06:11.337Z,34.62
2022-08-22T15:08:42.148Z,34.50
2022-08-22T15:11:11.907Z,33.56
2022-08-22T15:13:38.749Z,34.34
2022-08-22T15:16:16.133Z,33.80
2022-08-22T15:18:51.890Z,35.13
2022-08-22T15:21:29.052Z,34.86
2022-08-22T15:23:56.399Z,35.26
2022-08-22T15:26:22.845Z,36.64
2022-08-22T15:28:53.625Z,37.17
2022-08-22T15:31:20.289Z,37.85
2022-08-22T15:33:47.765Z,38.09
2022-08-22T15:36:19.978Z,39.37
2022-08-22T15:38:56.022Z,40.00
2022-08-22T15:41:22.964Z,40.36
2022-08-22T15:43:54.087Z,41.12
2022-08-22T15:46:23.724Z,42.08
2022-08-22T15:49:11.400Z,42.55
2022-08-22T15:51:41.019Z,43.01
2022-08-22T15:54:16.051Z,43.31
2022-08-22T15:57:03.225Z,43.19
2022-08-22T15:59:53.457Z,43.61
2022-08-22T16:02:27.050Z,44.48
2022-08-22T16:05:17.000Z,44.27
2022-08-22T16:07:43.912Z,45.39
2022-08-22T16:10:10.341Z,45.64
2022-08-22T16:12:39.030Z,46.37
2022-08-22T16:15:10.573Z,46.76
2022-08-22T16:17:41.935Z,47.36
2022-08-22T16:20:09.946Z,47.75
2022-08-22T16:23:09.168Z,48.29
2022-08-22T16:25:44.524Z,48.34
2022-08-22T16:28:31.633Z,47.21
2022-08-22T16:31:34.151Z,47.24
2022-08-22T16:34:16.203Z,47.62
2022-08-22T16:36:44.874Z,47.72
2022-08-22T16:39:11.272Z,48.47
2022-08-22T16:41:40.824Z,49.36
2022-08-22T16:44:33.335Z,48.79
2022-08-22T16:47:26.372Z,50.01
2022-08-22T16:49:52.888Z,49.88
2022-08-22T16:52:25.517Z,50.78
2022-08-22T16:55:02.214Z,51.37
2022-08-22T16:57:38.052Z,51.20
2022-08-22T17:00:12.996Z,53.23
2022-08-22T17:02:45.566Z,52.57
2022-08-22T17:05:30.836Z,54.25
2022-08-22T17:08:10.842Z,54.22
2022-08-22T17:10:40.299Z,55.04
2022-08-22T17:13:09.510Z,54.65
2022-08-22T17:15:35.959Z,56.56
2022-08-22T17:18:11.834Z,56.74
2022-08-22T17:20:57.629Z,56.59
2022-08-22T17:23:45.245Z,55.91
2022-08-22T17:26:18.032Z,56.68
2022-08-22T17:28:52.315Z,53.79
2022-08-22T17:31:37.788Z,52.78
2022-08-22T17:34:07.250Z,52.82
2022-08-22T17:36:53.937Z,52.20
2022-08-22T17:39:55.625Z,53.12
2022-08-22T17:42:28.579Z,54.41
2022-08-22T17:45:13.882Z,50.79
2022-08-22T17:47:44.439Z,52.32
2022-08-22T17:50:19.293Z,51.33
2022-08-22T17:52:46.165Z,52.77
2022-08-22T17:55:12.600Z,53.01
2022-08-22T17:57:45.271Z,51.95
2022-08-22T18:00:24.271Z,51.49
2022-08-22T18:02:52.204Z,53.02
2022-08-22T18:05:32.128Z,53.23
2022-08-22T18:08:04.750Z,53.64
2022-08-22T18:10:53.531Z,53.56
2022-08-22T18:13:38.881Z,52.60
2022-08-22T18:16:12.596Z,53.58
2022-08-22T18:18:40.776Z,53.98
2022-08-22T18:21:10.568Z,54.29
2022-08-22T18:23:44.786Z,56.39
2022-08-22T18:26:21.050Z,58.47
2022-08-22T18:28:52.919Z,59.10
2022-08-22T18:31:22.575Z,59.96
2022-08-22T18:33:55.082Z,61.98
2022-08-22T18:36:23.023Z,62.75
2022-08-22T18:39:03.433Z,63.78
2022-08-22T18:41:50.385Z,64.44
2022-08-22T18:44:21.703Z,65.55
2022-08-22T18:46:51.651Z,67.03
2022-08-22T18:49:19.507Z,68.15
2022-08-22T18:52:05.433Z,69.22
2022-08-22T18:54:36.529Z,71.14
2022-08-22T18:57:08.361Z,72.77
2022-08-22T18:59:34.821Z,74.46
2022-08-22T19:02:09.906Z,75.10
2022-08-22T19:04:40.296Z,76.16
2022-08-22T19:07:10.241Z,77.75
2022-08-22T19:09:40.517Z,79.31
2022-08-22T19:12:11.612Z,80.93
2022-08-22T19:15:13.671Z,81.44
2022-08-22T19:17:43.043Z,83.04
2022-08-22T19:20:34.562Z,83.68
2022-08-22T19:23:19.563Z,83.44
2022-08-22T19:26:04.655Z,84.11
2022-08-22T19:28:35.463Z,84.46
2022-08-22T19:31:22.453Z,84.45
2022-08-22T19:34:03.191Z,85.54
2022-08-22T19:36:32.056Z,85.60
2022-08-22T19:39:00.279Z,85.08
2022-08-22T19:41:45.835Z,85.15
2022-08-22T19:44:18.697Z,85.55
2022-08-22T19:46:46.739Z,85.78
2022-08-22T19:49:27.718Z,85.24
2022-08-22T19:52:14.484Z,85.71
2022-08-22T19:54:47.665Z,86.23
2022-08-22T19:57:19.395Z,85.65
2022-08-22T20:00:00.084Z,85.97
2022-08-22T20:02:49.899Z,86.79
2022-08-22T20:05:22.293Z,87.08
2022-08-22T20:07:48.694Z,88.36
2022-08-22T20:10:35.160Z,87.26
2022-08-22T20:13:07.500Z,87.45
2022-08-22T20:15:36.068Z,88.47
2022-08-22T20:18:12.488Z,89.13
2022-08-22T20:20:56.013Z,90.21
2022-08-22T20:23:27.967Z,91.14
2022-08-22T20:25:55.981Z,91.58
2022-08-22T20:28:34.970Z,91.50
2022-08-22T20:31:02.871Z,92.73
2022-08-22T20:33:49.653Z,93.27
2022-08-22T20:36:27.858Z,93.75
2022-08-22T20:38:56.985Z,94.27
2022-08-22T20:41:25.546Z,94.75
2022-08-22T20:44:02.013Z,94.23
2022-08-22T20:46:48.360Z,95.84
2022-08-22T20:49:21.567Z,95.96
2022-08-22T20:51:52.354Z,95.58
2022-08-22T20:54:20.636Z,95.44
2022-08-22T20:56:48.848Z,95.70
2022-08-22T20:59:29.669Z,96.74
2022-08-22T21:02:08.750Z,96.67
2022-08-22T21:04:42.775Z,98.41
2022-08-22T21:07:09.486Z,98.51
2022-08-22T21:09:54.670Z,99.20
2022-08-22T21:12:22.314Z,99.00
2022-08-22T21:14:48.873Z,99.37
2022-08-22T21:17:19.433Z,100.00
2022-08-22T21:19:45.958Z,99.75
2022-08-22T21:22:13.897Z,100.00
2022-08-22T21:24:40.370Z,100.00
2022-08-22T21:27:07.559Z,100.00
2022-08-22T21:29:34.292Z,100.00
2022-08-22T21:32:06.098Z,100.00
2022-08-22T21:34:44.481Z,100.00
2022-08-22T21:37:16.007Z,100.00
2022-08-22T21:39:44.075Z,100.00
2022-08-22T21:42:11.868Z,100.00
2022-08-22T21:44:39.295Z,100.00
2022-08-22T21:47:14.945Z,100.00
2022-08-22T21:50:02.246Z,100.00
2022-08-22T21:52:29.547Z,100.00
2022-08-22T21:55:12.194Z,100.00
2022-08-22T21:57:38.713Z,100.00
2022-08-22T22:00:13.888Z,100.00
2022-08-22T22:02:41.180Z,100.00
2022-08-22T22:05:11.784Z,100.00
2022-08-22T22:07:42.113Z,100.00
2022-08-22T22:10:10.369Z,100.00
2022-08-22T22:12:40.870Z,100.00
2022-08-22T22:15:07.640Z,100.00
2022-08-22T22:17:34.106Z,100.00
2022-08-22T22:20:00.536Z,100.00
2022-08-22T22:22:26.992Z,100.00
2022-08-22T22:24:53.408Z,100.00
2022-08-22T22:27:19.853Z,100.00
2022-08-22T22:29:46.343Z,100.00
2022-08-22T22:32:12.833Z,100.00
2022-08-22T22:34:39.291Z,100.00
2022-08-22T22:37:06.830Z,100.00
2022-08-22T22:39:33.741Z,100.00
2022-08-22T22:42:00.386Z,100.00
2022-08-22T22:44:26.870Z,100.00
2022-08-22T22:47:00.663Z,100.00
2022-08-22T22:49:27.286Z,100.00
2022-08-22T22:51:53.759Z,100.00
2022-08-22T22:54:20.388Z,100.00
2022-08-22T22:56:53.855Z,100.00
2022-08-22T22:59:24.840Z,100.00
2022-08-22T23:02:11.623Z,100.00
2022-08-22T23:04:38.896Z,100.00
2022-08-22T23:07:06.263Z,100.00
2022-08-22T23:09:38.571Z,100.00
2022-08-22T23:12:11.322Z,100.00
2022-08-22T23:14:37.741Z,100.00
2022-08-22T23:17:04.311Z,100.00
2022-08-22T23:19:30.860Z,100.00
2022-08-22T23:21:58.034Z,100.00
2022-08-22T23:24:24.758Z,100.00
2022-08-22T23:26:51.203Z,100.00
2022-08-22T23:29:17.613Z,100.00
2022-08-22T23:31:50.078Z,100.00
2022-08-22T23:34:17.769Z,100.00
2022-08-22T23:36:45.421Z,100.00
2022-08-22T23:39:12.224Z,100.00
2022-08-22T23:41:39.311Z,100.00
2022-08-22T23:44:06.598Z,100.00
2022-08-22T23:46:35.559Z,100.00
2022-08-22T23:49:02.211Z,100.00
2022-08-22T23:51:28.743Z,100.00
2022-08-22T23:53:55.823Z,100.00
2022-08-22T23:56:25.681Z,100.00
2022-08-22T23:58:53.364Z,100.00
